Time;durP1;ratioP1;P1;durP2;ratioP2;P2;SDS_P1;SDS_P2;PMS_P1;PMS_P2;Temp;Humidity;BMP_temperature;BMP_pressure;BME280_temperature;BME280_humidity;BME280_pressure;Samples;Min_cycle;Max_cycle;Signal;HPM_P1;HPM_P2
2023/04/16 00:01:12;;;;;;;1.33;1.23;;;;;;;;;;5059058;28;20260;-73
2023/04/16 00:03:41;;;;;;;1.97;1.50;;;;;;;;;;5062744;28;20213;-73
2023/04/16 00:06:08;;;;;;;1.03;1.03;;;;;;;;;;5058894;28;20302;-74
2023/04/16 00:08:36;;;;;;;1.30;1.30;;;;;;;;;;5057775;28;20234;-73
2023/04/16 00:11:03;;;;;;;1.40;1.30;;;;;;;;;;5063742;28;20199;-73
2023/04/16 00:13:30;;;;;;;1.33;1.23;;;;;;;;;;5061627;28;20195;-73
2023/04/16 00:15:57;;;;;;;1.20;1.20;;;;;;;;;;5056578;28;20199;-73
2023/04/16 00:18:26;;;;;;;1.50;1.40;;;;;;;;;;5061285;28;20207;-73
2023/04/16 00:20:54;;;;;;;1.33;1.23;;;;;;;;;;5062401;28;20218;-73
2023/04/16 00:23:24;;;;;;;1.10;1.10;;;;;;;;;;5057611;28;20211;-73
2023/04/16 00:25:52;;;;;;;1.37;1.27;;;;;;;;;;5057782;28;20231;-73
2023/04/16 00:28:19;;;;;;;1.43;1.33;;;;;;;;;;5061070;28;20211;-73
2023/04/16 00:30:47;;;;;;;1.67;1.57;;;;;;;;;;5063153;28;20192;-74
2023/04/16 00:33:14;;;;;;;1.50;1.30;;;;;;;;;;5058046;28;20207;-73
2023/04/16 00:35:41;;;;;;;0.90;0.90;;;;;;;;;;5059987;28;20205;-73
2023/04/16 00:38:10;;;;;;;1.10;1.10;;;;;;;;;;5055285;28;20215;-73
2023/04/16 00:40:37;;;;;;;1.60;1.40;;;;;;;;;;5063223;28;20199;-74
2023/04/16 00:43:04;;;;;;;1.57;1.47;;;;;;;;;;5061411;28;20199;-73
2023/04/16 00:45:31;;;;;;;1.40;1.10;;;;;;;;;;5062704;28;20234;-73
2023/04/16 00:47:59;;;;;;;1.17;1.10;;;;;;;;;;5054003;28;20207;-73
2023/04/16 00:50:26;;;;;;;1.47;1.20;;;;;;;;;;5055398;28;20206;-73
2023/04/16 00:52:53;;;;;;;1.10;1.10;;;;;;;;;;5064131;28;20203;-75
2023/04/16 00:55:21;;;;;;;1.80;1.57;;;;;;;;;;5058695;28;20202;-74
2023/04/16 00:57:49;;;;;;;1.40;1.30;;;;;;;;;;5064788;28;20200;-74
2023/04/16 01:00:16;;;;;;;1.33;1.23;;;;;;;;;;5056447;28;20211;-66
2023/04/16 01:02:43;;;;;;;1.40;1.30;;;;;;;;;;5062277;28;20209;-66
2023/04/16 01:05:10;;;;;;;1.37;1.23;;;;;;;;;;5062881;28;20219;-67
2023/04/16 01:07:37;;;;;;;1.20;1.20;;;;;;;;;;5059239;28;20203;-66
2023/04/16 01:10:04;;;;;;;1.67;1.20;;;;;;;;;;5060244;28;20237;-67
2023/04/16 01:12:33;;;;;;;1.73;1.30;;;;;;;;;;5059836;28;20207;-66
2023/04/16 01:15:00;;;;;;;1.10;1.10;;;;;;;;;;5061046;28;20207;-66
2023/04/16 01:17:27;;;;;;;1.47;1.37;;;;;;;;;;5061897;28;20221;-66
2023/04/16 01:19:54;;;;;;;1.50;1.40;;;;;;;;;;5054441;28;20218;-65
2023/04/16 01:22:23;;;;;;;1.40;1.30;;;;;;;;;;5057485;28;20207;-66
2023/04/16 01:24:50;;;;;;;1.60;1.50;;;;;;;;;;5056829;28;20218;-66
2023/04/16 01:27:17;;;;;;;1.40;1.30;;;;;;;;;;5054974;28;20294;-66
2023/04/16 01:29:44;;;;;;;1.67;1.57;;;;;;;;;;5061361;28;20202;-66
2023/04/16 01:32:11;;;;;;;1.50;1.40;;;;;;;;;;5060637;28;20306;-66
2023/04/16 01:34:38;;;;;;;1.60;1.50;;;;;;;;;;5060711;28;20218;-66
2023/04/16 01:37:05;;;;;;;1.50;1.40;;;;;;;;;;5055561;28;20204;-66
2023/04/16 01:39:34;;;;;;;2.00;1.50;;;;;;;;;;5058712;28;20195;-66
2023/04/16 01:42:01;;;;;;;1.57;1.47;;;;;;;;;;5060268;28;20199;-66
2023/04/16 01:44:29;;;;;;;1.40;1.30;;;;;;;;;;5056593;28;20222;-66
2023/04/16 01:46:56;;;;;;;1.60;1.50;;;;;;;;;;5056224;28;20262;-66
2023/04/16 01:49:24;;;;;;;1.80;1.70;;;;;;;;;;5054212;28;20206;-66
2023/04/16 01:51:51;;;;;;;1.57;1.30;;;;;;;;;;5057130;28;20241;-65
2023/04/16 01:54:18;;;;;;;1.30;1.20;;;;;;;;;;5053948;28;20207;-66
2023/04/16 01:56:47;;;;;;;1.50;1.40;;;;;;;;;;5056258;28;20210;-66
2023/04/16 01:59:14;;;;;;;1.17;1.10;;;;;;;;;;5064751;28;20211;-65
2023/04/16 02:01:42;;;;;;;1.30;1.20;;;;;;;;;;5059265;28;20205;-66
2023/04/16 02:04:09;;;;;;;1.17;1.17;;;;;;;;;;5058100;28;20262;-66
2023/04/16 02:06:36;;;;;;;1.40;1.30;;;;;;;;;;5055965;28;20218;-66
2023/04/16 02:09:03;;;;;;;1.27;1.17;;;;;;;;;;5060067;28;20218;-66
2023/04/16 02:11:30;;;;;;;1.43;1.40;;;;;;;;;;5059724;28;20253;-65
2023/04/16 02:13:59;;;;;;;1.60;1.50;;;;;;;;;;5058537;28;20205;-66
2023/04/16 02:16:26;;;;;;;1.83;1.73;;;;;;;;;;5059813;28;20207;-65
2023/04/16 02:18:53;;;;;;;1.50;1.40;;;;;;;;;;5062007;28;20214;-66
2023/04/16 02:21:20;;;;;;;2.00;1.90;;;;;;;;;;5056580;28;20211;-66
2023/04/16 02:23:50;;;;;;;2.30;2.10;;;;;;;;;;5056964;28;20208;-65
2023/04/16 02:26:17;;;;;;;2.67;2.40;;;;;;;;;;5053424;28;20350;-66
2023/04/16 02:28:44;;;;;;;2.83;1.83;;;;;;;;;;5056715;28;20203;-66
2023/04/16 02:31:13;;;;;;;2.33;2.13;;;;;;;;;;5058071;28;20199;-66
2023/04/16 02:33:40;;;;;;;2.50;2.30;;;;;;;;;;5060634;28;20282;-66
2023/04/16 02:36:10;;;;;;;2.40;2.20;;;;;;;;;;5056285;28;20294;-66
2023/04/16 02:38:37;;;;;;;2.60;2.40;;;;;;;;;;5063713;28;20204;-66
2023/04/16 02:41:04;;;;;;;2.80;2.60;;;;;;;;;;5062297;28;20199;-66
2023/04/16 02:43:31;;;;;;;2.20;2.00;;;;;;;;;;5058158;28;20206;-66
2023/04/16 02:45:59;;;;;;;2.40;2.20;;;;;;;;;;5055936;28;20228;-66
2023/04/16 02:48:27;;;;;;;2.00;1.90;;;;;;;;;;5060057;28;20236;-66
2023/04/16 02:50:54;;;;;;;2.10;2.00;;;;;;;;;;5065049;28;20198;-66
2023/04/16 02:53:21;;;;;;;2.27;2.07;;;;;;;;;;5060040;28;20207;-66
2023/04/16 02:55:52;;;;;;;2.10;2.00;;;;;;;;;;5061180;28;20207;-66
2023/04/16 02:58:19;;;;;;;2.00;1.80;;;;;;;;;;5058834;28;20206;-66
2023/04/16 03:00:46;;;;;;;1.90;1.80;;;;;;;;;;5065086;28;20202;-65
2023/04/16 03:03:14;;;;;;;2.23;2.00;;;;;;;;;;5062985;28;20202;-67
2023/04/16 03:05:42;;;;;;;1.93;1.83;;;;;;;;;;5058003;28;20218;-66
2023/04/16 03:08:09;;;;;;;2.00;1.90;;;;;;;;;;5058844;28;20199;-67
2023/04/16 03:10:37;;;;;;;2.10;2.00;;;;;;;;;;5066297;28;20207;-66
2023/04/16 03:13:04;;;;;;;2.00;1.90;;;;;;;;;;5064216;28;20212;-66
2023/04/16 03:15:31;;;;;;;1.70;1.60;;;;;;;;;;5061320;28;20200;-66
2023/04/16 03:17:59;;;;;;;2.00;1.90;;;;;;;;;;5058913;28;20215;-66
2023/04/16 03:20:26;;;;;;;2.30;2.10;;;;;;;;;;5059228;28;20230;-66
2023/04/16 03:22:56;;;;;;;2.47;2.27;;;;;;;;;;5061103;28;20213;-66
2023/04/16 03:25:23;;;;;;;2.10;2.00;;;;;;;;;;5064057;28;20221;-65
2023/04/16 03:27:50;;;;;;;2.43;1.90;;;;;;;;;;5070274;28;20206;-65
2023/04/16 03:30:17;;;;;;;2.27;2.07;;;;;;;;;;5054594;28;20277;-66
2023/04/16 03:32:44;;;;;;;2.40;2.20;;;;;;;;;;5059996;28;20219;-66
2023/04/16 03:35:12;;;;;;;2.27;2.07;;;;;;;;;;5060982;28;20202;-67
2023/04/16 03:37:39;;;;;;;2.00;1.90;;;;;;;;;;5061123;28;20233;-66
2023/04/16 03:40:08;;;;;;;1.80;1.70;;;;;;;;;;5064574;28;20203;-66
2023/04/16 03:42:35;;;;;;;2.37;2.17;;;;;;;;;;5058638;28;20214;-66
2023/04/16 03:45:02;;;;;;;2.07;1.97;;;;;;;;;;5059624;28;20235;-67
2023/04/16 03:47:30;;;;;;;2.00;1.90;;;;;;;;;;5064964;28;20214;-66
2023/04/16 03:49:57;;;;;;;2.57;2.37;;;;;;;;;;5059691;28;20204;-65
2023/04/16 03:52:24;;;;;;;2.73;2.53;;;;;;;;;;5065923;28;20217;-66
2023/04/16 03:54:51;;;;;;;2.53;2.27;;;;;;;;;;5064994;28;20294;-66
2023/04/16 03:57:19;;;;;;;2.30;2.13;;;;;;;;;;5060268;28;20207;-69
2023/04/16 03:59:46;;;;;;;2.33;2.17;;;;;;;;;;5056107;28;20203;-68
2023/04/16 04:02:14;;;;;;;2.87;2.57;;;;;;;;;;5059593;28;20207;-69
2023/04/16 04:04:41;;;;;;;2.37;2.23;;;;;;;;;;5054791;28;20294;-69
2023/04/16 04:07:08;;;;;;;2.70;2.50;;;;;;;;;;5051171;28;20222;-69
2023/04/16 04:09:35;;;;;;;2.80;2.60;;;;;;;;;;5056671;28;20200;-68
2023/04/16 04:12:02;;;;;;;2.13;2.03;;;;;;;;;;5062981;28;20206;-68
2023/04/16 04:14:31;;;;;;;2.73;2.53;;;;;;;;;;5055699;28;20207;-69
2023/04/16 04:16:58;;;;;;;2.77;2.57;;;;;;;;;;5054636;28;20211;-69
2023/04/16 04:19:25;;;;;;;3.43;3.07;;;;;;;;;;5058756;28;20216;-68
2023/04/16 04:21:52;;;;;;;2.47;2.27;;;;;;;;;;5049261;28;20219;-68
2023/04/16 04:24:19;;;;;;;3.23;2.70;;;;;;;;;;5054143;28;20202;-69
2023/04/16 04:26:46;;;;;;;2.93;2.73;;;;;;;;;;5054641;28;20223;-68
2023/04/16 04:29:13;;;;;;;3.30;2.90;;;;;;;;;;5052720;28;20203;-68
2023/04/16 04:31:42;;;;;;;2.87;2.67;;;;;;;;;;5059411;28;20203;-67
2023/04/16 04:34:09;;;;;;;3.40;2.87;;;;;;;;;;5057281;28;20210;-69
2023/04/16 04:36:36;;;;;;;3.50;3.20;;;;;;;;;;5049529;28;20199;-68
2023/04/16 04:39:03;;;;;;;3.57;3.27;;;;;;;;;;5056392;28;20210;-68
2023/04/16 04:41:30;;;;;;;3.57;3.27;;;;;;;;;;5062639;28;20206;-69
2023/04/16 04:43:57;;;;;;;3.30;3.00;;;;;;;;;;5058370;28;20232;-67
2023/04/16 04:46:25;;;;;;;3.40;3.10;;;;;;;;;;5055754;28;20231;-66
2023/04/16 04:48:53;;;;;;;3.30;3.00;;;;;;;;;;5054380;28;20231;-66
2023/04/16 04:51:20;;;;;;;3.33;3.03;;;;;;;;;;5052405;28;20210;-65
2023/04/16 04:53:47;;;;;;;2.83;2.63;;;;;;;;;;5053395;28;20204;-66
2023/04/16 04:56:14;;;;;;;3.27;3.00;;;;;;;;;;5059797;28;20201;-65
2023/04/16 04:58:41;;;;;;;3.40;3.17;;;;;;;;;;5061116;28;20194;-66
2023/04/16 05:01:08;;;;;;;3.87;3.50;;;;;;;;;;5054234;28;20211;-65
2023/04/16 05:03:36;;;;;;;2.93;2.73;;;;;;;;;;5060579;28;20225;-66
2023/04/16 05:06:04;;;;;;;3.10;2.80;;;;;;;;;;5060212;28;20222;-73
2023/04/16 05:08:31;;;;;;;3.10;2.90;;;;;;;;;;5059048;28;20196;-72
2023/04/16 05:10:58;;;;;;;3.53;3.23;;;;;;;;;;5058140;28;20211;-73
2023/04/16 05:13:25;;;;;;;2.70;2.50;;;;;;;;;;5063723;28;20199;-72
2023/04/16 05:15:53;;;;;;;2.70;2.50;;;;;;;;;;5055743;28;20235;-73
2023/04/16 05:18:20;;;;;;;3.20;3.00;;;;;;;;;;5059408;28;20208;-72
2023/04/16 05:20:47;;;;;;;4.27;3.20;;;;;;;;;;5054823;28;20199;-72
2023/04/16 05:23:15;;;;;;;3.83;3.47;;;;;;;;;;5067163;28;20206;-72
2023/04/16 05:25:42;;;;;;;2.80;2.60;;;;;;;;;;5054581;28;20234;-72
2023/04/16 05:28:10;;;;;;;3.43;3.13;;;;;;;;;;5058908;28;20227;-73
2023/04/16 05:30:37;;;;;;;3.90;3.50;;;;;;;;;;5057996;28;20204;-72
2023/04/16 05:33:04;;;;;;;3.67;3.37;;;;;;;;;;5056201;28;20210;-72
2023/04/16 05:35:31;;;;;;;3.70;3.30;;;;;;;;;;5064107;28;20222;-73
2023/04/16 05:37:58;;;;;;;3.17;2.83;;;;;;;;;;5059186;28;20198;-73
2023/04/16 05:40:27;;;;;;;3.67;3.37;;;;;;;;;;5058547;28;20202;-72
2023/04/16 05:42:54;;;;;;;3.43;3.13;;;;;;;;;;5059055;28;20205;-73
2023/04/16 05:45:21;;;;;;;3.40;3.10;;;;;;;;;;5062637;28;20246;-72
2023/04/16 05:47:48;;;;;;;4.07;3.70;;;;;;;;;;5055574;28;20218;-73
2023/04/16 05:50:15;;;;;;;3.80;3.50;;;;;;;;;;5057939;28;20207;-73
2023/04/16 05:52:42;;;;;;;3.83;3.53;;;;;;;;;;5059280;28;20214;-73
2023/04/16 05:55:10;;;;;;;4.10;3.80;;;;;;;;;;5062246;28;20202;-72
2023/04/16 05:57:38;;;;;;;4.30;4.00;;;;;;;;;;5058970;28;20194;-72
2023/04/16 06:00:06;;;;;;;3.60;3.30;;;;;;;;;;5058068;28;20206;-73
2023/04/16 06:02:33;;;;;;;3.70;3.40;;;;;;;;;;5060716;28;20234;-73
2023/04/16 06:05:01;;;;;;;4.03;3.73;;;;;;;;;;5062354;28;20213;-74
2023/04/16 06:07:28;;;;;;;4.07;3.67;;;;;;;;;;5065887;28;20219;-73
2023/04/16 06:09:55;;;;;;;3.70;3.40;;;;;;;;;;5060101;28;20203;-73
2023/04/16 06:12:22;;;;;;;4.40;4.00;;;;;;;;;;5061048;28;20199;-73
2023/04/16 06:14:50;;;;;;;4.13;3.77;;;;;;;;;;5060952;28;20200;-73
2023/04/16 06:17:18;;;;;;;4.10;3.80;;;;;;;;;;5064819;28;20210;-73
2023/04/16 06:19:45;;;;;;;4.67;4.27;;;;;;;;;;5058168;28;20210;-74
2023/04/16 06:22:12;;;;;;;5.67;4.50;;;;;;;;;;5064976;28;20218;-74
2023/04/16 06:24:39;;;;;;;5.27;4.50;;;;;;;;;;5065350;28;20204;-74
2023/04/16 06:27:06;;;;;;;4.83;4.40;;;;;;;;;;5058507;28;20297;-73
2023/04/16 06:29:34;;;;;;;4.23;3.70;;;;;;;;;;5059215;28;20208;-72
2023/04/16 06:32:03;;;;;;;4.80;4.30;;;;;;;;;;5063110;28;20202;-73
2023/04/16 06:34:30;;;;;;;6.13;4.70;;;;;;;;;;5061412;28;20206;-73
2023/04/16 06:36:57;;;;;;;5.03;4.50;;;;;;;;;;5063142;28;20196;-73
2023/04/16 06:39:24;;;;;;;4.57;4.17;;;;;;;;;;5059581;28;20203;-73
2023/04/16 06:41:51;;;;;;;5.30;4.20;;;;;;;;;;5064638;28;20210;-75
2023/04/16 06:44:18;;;;;;;4.60;3.93;;;;;;;;;;5067310;28;20238;-76
2023/04/16 06:46:45;;;;;;;5.73;4.73;;;;;;;;;;5065660;28;20209;-76
2023/04/16 06:49:14;;;;;;;5.77;4.60;;;;;;;;;;5065508;28;20194;-76
2023/04/16 06:51:42;;;;;;;4.50;4.00;;;;;;;;;;5061920;28;20207;-76
2023/04/16 06:54:09;;;;;;;4.83;4.03;;;;;;;;;;5060338;28;20209;-76
2023/04/16 06:56:36;;;;;;;4.93;4.43;;;;;;;;;;5059274;28;20203;-77
2023/04/16 06:59:03;;;;;;;6.17;5.07;;;;;;;;;;5058911;28;20213;-76
2023/04/16 07:01:31;;;;;;;5.27;4.77;;;;;;;;;;5062826;28;20211;-75
2023/04/16 07:03:58;;;;;;;4.70;4.20;;;;;;;;;;5059656;28;20203;-75
2023/04/16 07:06:26;;;;;;;4.53;4.13;;;;;;;;;;5062405;28;20202;-76
2023/04/16 07:08:54;;;;;;;4.47;4.07;;;;;;;;;;5060316;28;20223;-72
2023/04/16 07:11:21;;;;;;;5.17;4.37;;;;;;;;;;5060772;28;20214;-72
2023/04/16 07:13:49;;;;;;;5.13;4.33;;;;;;;;;;5065775;28;20222;-73
2023/04/16 07:16:18;;;;;;;4.80;4.30;;;;;;;;;;5062890;28;20211;-73
2023/04/16 07:18:45;;;;;;;6.63;5.13;;;;;;;;;;5065142;28;20195;-73
2023/04/16 07:21:12;;;;;;;5.67;4.70;;;;;;;;;;5058642;28;20207;-73
2023/04/16 07:23:40;;;;;;;4.83;4.37;;;;;;;;;;5061430;28;20218;-73
2023/04/16 07:26:08;;;;;;;4.97;4.47;;;;;;;;;;5061409;28;20211;-73
2023/04/16 07:28:35;;;;;;;4.63;4.07;;;;;;;;;;5064189;28;20219;-74
2023/04/16 07:31:02;;;;;;;4.20;3.80;;;;;;;;;;5057960;28;20203;-74
2023/04/16 07:33:29;;;;;;;4.47;3.73;;;;;;;;;;5059837;28;20195;-73
2023/04/16 07:35:57;;;;;;;4.53;4.10;;;;;;;;;;5060130;28;20253;-73
2023/04/16 07:38:24;;;;;;;4.23;3.83;;;;;;;;;;5058036;28;20206;-65
2023/04/16 07:40:52;;;;;;;4.77;3.53;;;;;;;;;;5064183;28;20202;-65
2023/04/16 07:43:19;;;;;;;4.40;4.00;;;;;;;;;;5056100;28;20195;-66
2023/04/16 07:45:47;;;;;;;4.47;3.57;;;;;;;;;;5056003;28;20231;-66
2023/04/16 07:48:14;;;;;;;3.80;3.50;;;;;;;;;;5061776;28;20234;-68
2023/04/16 07:50:42;;;;;;;3.67;3.37;;;;;;;;;;5055273;28;20210;-67
2023/04/16 07:53:09;;;;;;;4.20;3.80;;;;;;;;;;5058020;28;20286;-68
2023/04/16 07:55:36;;;;;;;3.73;3.43;;;;;;;;;;5055019;28;20296;-67
2023/04/16 07:58:06;;;;;;;3.70;3.40;;;;;;;;;;5054903;28;20210;-67
2023/04/16 08:00:33;;;;;;;3.70;3.40;;;;;;;;;;5057527;28;20201;-67
2023/04/16 08:03:01;;;;;;;3.53;3.23;;;;;;;;;;5055626;28;20230;-66
2023/04/16 08:05:28;;;;;;;3.40;3.20;;;;;;;;;;5060918;28;20215;-67
2023/04/16 08:07:55;;;;;;;3.60;3.30;;;;;;;;;;5051929;28;20226;-67
2023/04/16 08:10:22;;;;;;;3.70;3.37;;;;;;;;;;5057499;28;20199;-68
2023/04/16 08:12:49;;;;;;;4.37;3.40;;;;;;;;;;5056635;28;20227;-67
2023/04/16 08:15:18;;;;;;;3.50;3.20;;;;;;;;;;5060642;28;20237;-67
2023/04/16 08:17:45;;;;;;;3.67;3.37;;;;;;;;;;5054778;28;20200;-67
2023/04/16 08:20:12;;;;;;;3.63;3.33;;;;;;;;;;5056210;28;20211;-67
2023/04/16 08:22:39;;;;;;;3.13;2.93;;;;;;;;;;5059674;28;20200;-67
2023/04/16 08:25:07;;;;;;;3.03;2.83;;;;;;;;;;5053268;28;20210;-68
2023/04/16 08:27:34;;;;;;;3.10;2.90;;;;;;;;;;5062652;28;20227;-68
2023/04/16 08:30:01;;;;;;;3.10;2.87;;;;;;;;;;5057821;28;20211;-67
2023/04/16 08:32:30;;;;;;;3.27;2.97;;;;;;;;;;5057089;28;20204;-68
2023/04/16 08:34:57;;;;;;;4.13;2.90;;;;;;;;;;5060351;28;20211;-67
2023/04/16 08:37:25;;;;;;;3.17;2.97;;;;;;;;;;5053184;28;20202;-67
2023/04/16 08:39:52;;;;;;;3.77;3.00;;;;;;;;;;5032565;28;20196;-65
2023/04/16 08:42:35;;;;;;;3.73;3.43;;;;;;;;;;5029356;28;20234;-67
2023/04/16 08:45:07;;;;;;;3.60;3.30;;;;;;;;;;5051297;28;20240;-65
2023/04/16 08:47:36;;;;;;;3.60;3.30;;;;;;;;;;5040924;28;20274;-64
2023/04/16 08:50:04;;;;;;;3.77;3.47;;;;;;;;;;5040535;28;20207;-65
2023/04/16 08:52:31;;;;;;;3.93;3.53;;;;;;;;;;5041483;28;20203;-65
2023/04/16 08:55:05;;;;;;;3.53;3.33;;;;;;;;;;5041823;28;20298;-65
2023/04/16 08:57:37;;;;;;;3.93;3.63;;;;;;;;;;5047867;28;20199;-65
2023/04/16 09:00:05;;;;;;;5.40;4.23;;;;;;;;;;5040114;28;20211;-65
2023/04/16 09:02:32;;;;;;;4.37;3.97;;;;;;;;;;5042477;28;20216;-64
2023/04/16 09:05:01;;;;;;;4.70;4.30;;;;;;;;;;5049074;28;20222;-64
2023/04/16 09:07:29;;;;;;;4.53;4.13;;;;;;;;;;5045229;28;20233;-65
2023/04/16 09:09:58;;;;;;;5.03;4.60;;;;;;;;;;5040544;28;20200;-67
2023/04/16 09:12:25;;;;;;;5.17;4.67;;;;;;;;;;5039228;28;20203;-66
2023/04/16 09:14:53;;;;;;;5.23;4.73;;;;;;;;;;5040205;28;20212;-65
2023/04/16 09:17:20;;;;;;;5.77;4.90;;;;;;;;;;5040649;28;20293;-64
2023/04/16 09:19:47;;;;;;;6.03;4.90;;;;;;;;;;5041494;28;20269;-64
2023/04/16 09:22:16;;;;;;;5.00;4.50;;;;;;;;;;5040702;28;20245;-64
2023/04/16 09:24:43;;;;;;;6.00;5.40;;;;;;;;;;5047437;28;20207;-64
2023/04/16 09:27:10;;;;;;;6.50;5.60;;;;;;;;;;5046674;28;20203;-64
2023/04/16 09:29:38;;;;;;;6.90;5.80;;;;;;;;;;5040193;28;20224;-64
2023/04/16 09:32:06;;;;;;;8.57;6.40;;;;;;;;;;5041808;28;20195;-64
2023/04/16 09:34:33;;;;;;;7.43;6.57;;;;;;;;;;5039229;28;20195;-64
2023/04/16 09:37:16;;;;;;;6.00;5.40;;;;;;;;;;5041402;28;20203;-64
2023/04/16 09:39:43;;;;;;;6.10;5.50;;;;;;;;;;5040995;28;20192;-64
2023/04/16 09:42:11;;;;;;;6.03;5.43;;;;;;;;;;5043953;28;20203;-64
2023/04/16 09:44:39;;;;;;;6.80;6.03;;;;;;;;;;5043283;28;20227;-63
2023/04/16 09:47:07;;;;;;;6.00;4.97;;;;;;;;;;5041110;28;20204;-64
2023/04/16 09:49:35;;;;;;;6.10;5.50;;;;;;;;;;5036330;28;20233;-64
2023/04/16 09:52:02;;;;;;;6.10;5.50;;;;;;;;;;5039104;28;20242;-64
2023/04/16 09:54:30;;;;;;;7.03;6.00;;;;;;;;;;5043088;28;20204;-64
2023/04/16 09:56:58;;;;;;;7.00;6.30;;;;;;;;;;5039474;28;20211;-64
2023/04/16 09:59:25;;;;;;;7.50;6.77;;;;;;;;;;5042899;28;20213;-64
2023/04/16 10:01:52;;;;;;;7.10;6.40;;;;;;;;;;5040883;28;20203;-64
2023/04/16 10:04:21;;;;;;;6.93;6.27;;;;;;;;;;5047748;28;20204;-63
2023/04/16 10:07:03;;;;;;;6.63;6.00;;;;;;;;;;5045147;28;20203;-64
2023/04/16 10:09:33;;;;;;;6.60;6.00;;;;;;;;;;5043710;28;20223;-64
2023/04/16 10:12:00;;;;;;;6.53;5.93;;;;;;;;;;5039577;28;20206;-64
2023/04/16 10:14:27;;;;;;;6.83;6.23;;;;;;;;;;5046193;28;20238;-63
2023/04/16 10:16:56;;;;;;;6.83;6.23;;;;;;;;;;5041930;28;20208;-63
2023/04/16 10:19:23;;;;;;;7.07;6.37;;;;;;;;;;5043020;28;20196;-63
2023/04/16 10:21:50;;;;;;;7.07;6.47;;;;;;;;;;5047094;28;20207;-63
2023/04/16 10:24:18;;;;;;;6.50;5.95;;;;;;;;;;5039879;28;20216;-63
2023/04/16 10:26:47;;;;;;;7.43;6.72;;;;;;;;;;5040193;28;20203;-63
2023/04/16 10:29:15;;;;;;;7.93;7.22;;;;;;;;;;5041342;28;20234;-64
2023/04/16 10:31:42;;;;;;;7.38;6.60;;;;;;;;;;5044080;28;20214;-63
2023/04/16 10:34:10;;;;;;;7.75;7.00;;;;;;;;;;5042748;28;20204;-63
2023/04/16 10:36:38;;;;;;;6.65;6.07;;;;;;;;;;5043231;28;20238;-63
2023/04/16 10:39:10;;;;;;;6.13;5.60;;;;;;;;;;5044322;28;20214;-64
2023/04/16 10:41:37;;;;;;;5.63;5.13;;;;;;;;;;5041625;28;20215;-63
2023/04/16 10:44:08;;;;;;;5.80;5.30;;;;;;;;;;5035872;28;20236;-63
2023/04/16 10:46:37;;;;;;;6.05;5.55;;;;;;;;;;5040820;28;20264;-63
2023/04/16 10:49:14;;;;;;;6.00;5.45;;;;;;;;;;5044644;28;20277;-63
2023/04/16 10:51:42;;;;;;;6.68;6.07;;;;;;;;;;5045791;28;20221;-64
2023/04/16 10:54:24;;;;;;;6.60;6.00;;;;;;;;;;5045717;28;20215;-63
2023/04/16 10:56:51;;;;;;;6.20;5.70;;;;;;;;;;5048647;28;20210;-65
2023/04/16 10:59:20;;;;;;;5.85;5.35;;;;;;;;;;5044829;28;20204;-64
2023/04/16 11:01:48;;;;;;;5.55;5.13;;;;;;;;;;5047572;28;20204;-63
2023/04/16 11:04:29;;;;;;;5.72;5.28;;;;;;;;;;5048346;28;20203;-64
2023/04/16 11:07:03;;;;;;;5.60;5.20;;;;;;;;;;5045110;28;20203;-63
2023/04/16 11:09:47;;;;;;;6.53;5.93;;;;;;;;;;5048100;28;20215;-63
2023/04/16 11:12:15;;;;;;;6.00;5.50;;;;;;;;;;5048329;28;20208;-63
2023/04/16 11:14:44;;;;;;;5.95;5.45;;;;;;;;;;5045877;28;20210;-64
2023/04/16 11:17:11;;;;;;;5.65;5.18;;;;;;;;;;5046783;28;20212;-63
2023/04/16 11:19:38;;;;;;;5.60;5.10;;;;;;;;;;5042663;28;20202;-64
2023/04/16 11:22:06;;;;;;;5.53;5.03;;;;;;;;;;5046501;28;20206;-63
2023/04/16 11:24:33;;;;;;;4.85;4.45;;;;;;;;;;5046294;28;20199;-63
2023/04/16 11:27:01;;;;;;;5.85;5.35;;;;;;;;;;5047892;28;20212;-63
2023/04/16 11:29:29;;;;;;;5.78;5.28;;;;;;;;;;5045180;28;20224;-63
2023/04/16 11:31:57;;;;;;;7.07;6.38;;;;;;;;;;5042649;28;20212;-62
2023/04/16 11:34:24;;;;;;;5.55;5.05;;;;;;;;;;5045602;28;20218;-63
2023/04/16 11:36:52;;;;;;;5.20;4.80;;;;;;;;;;5044498;28;20204;-63
2023/04/16 11:39:19;;;;;;;4.95;4.55;;;;;;;;;;5048928;28;20205;-63
2023/04/16 11:41:47;;;;;;;5.07;4.57;;;;;;;;;;5045809;28;20230;-64
2023/04/16 11:44:18;;;;;;;4.72;4.32;;;;;;;;;;5041236;28;20251;-63
2023/04/16 11:46:45;;;;;;;4.88;4.47;;;;;;;;;;5047186;28;20239;-63
2023/04/16 11:49:14;;;;;;;4.40;4.10;;;;;;;;;;5042556;28;20220;-64
2023/04/16 11:51:41;;;;;;;5.80;5.30;;;;;;;;;;5043760;28;20210;-63
2023/04/16 11:54:09;;;;;;;5.32;4.93;;;;;;;;;;5040826;28;20211;-62
2023/04/16 11:56:37;;;;;;;5.75;5.25;;;;;;;;;;5036650;28;20278;-62
2023/04/16 11:59:10;;;;;;;5.47;4.97;;;;;;;;;;5045920;28;20222;-62
2023/04/16 12:01:38;;;;;;;4.55;4.15;;;;;;;;;;5038255;28;20200;-62
2023/04/16 12:04:05;;;;;;;4.50;4.20;;;;;;;;;;5041713;28;20211;-64
2023/04/16 12:06:34;;;;;;;4.32;4.03;;;;;;;;;;5045573;28;20215;-64
2023/04/16 12:09:01;;;;;;;4.45;4.15;;;;;;;;;;5041099;28;20235;-63
2023/04/16 12:11:39;;;;;;;4.63;4.25;;;;;;;;;;5042085;28;20239;-64
2023/04/16 12:14:09;;;;;;;4.78;4.40;;;;;;;;;;5040602;28;20226;-64
2023/04/16 12:16:36;;;;;;;5.10;4.63;;;;;;;;;;5042533;28;20294;-64
2023/04/16 12:19:04;;;;;;;4.82;4.43;;;;;;;;;;5042620;28;20214;-65
2023/04/16 12:21:40;;;;;;;4.70;4.30;;;;;;;;;;5040023;28;20204;-63
2023/04/16 12:24:08;;;;;;;5.03;4.63;;;;;;;;;;5041477;28;20211;-63
2023/04/16 12:26:38;;;;;;;6.18;5.68;;;;;;;;;;5041217;28;20299;-64
2023/04/16 12:29:15;;;;;;;6.43;5.82;;;;;;;;;;5041706;28;20228;-63
2023/04/16 12:31:42;;;;;;;5.65;5.15;;;;;;;;;;5047831;28;20203;-64
2023/04/16 12:34:10;;;;;;;4.90;4.50;;;;;;;;;;5039739;28;20218;-63
2023/04/16 12:36:37;;;;;;;4.10;3.80;;;;;;;;;;5035457;28;20204;-64
2023/04/16 12:39:06;;;;;;;4.78;4.38;;;;;;;;;;5040681;28;20234;-62
2023/04/16 12:41:33;;;;;;;4.93;4.53;;;;;;;;;;5042988;28;20265;-62
2023/04/16 12:44:05;;;;;;;6.78;6.18;;;;;;;;;;5046053;28;20235;-62
2023/04/16 12:46:32;;;;;;;6.20;5.60;;;;;;;;;;5039254;28;20303;-64
2023/04/16 12:48:59;;;;;;;5.80;5.22;;;;;;;;;;5037785;28;20231;-64
2023/04/16 12:51:26;;;;;;;6.90;6.20;;;;;;;;;;5043277;28;20204;-63
2023/04/16 12:53:54;;;;;;;5.75;5.20;;;;;;;;;;5042734;28;20207;-63
2023/04/16 12:56:22;;;;;;;4.90;4.50;;;;;;;;;;5042316;28;20215;-62
2023/04/16 12:58:50;;;;;;;5.28;4.85;;;;;;;;;;5040080;28;20219;-62
2023/04/16 13:01:18;;;;;;;6.05;5.53;;;;;;;;;;5041437;28;20220;-63
2023/04/16 13:03:45;;;;;;;5.75;5.25;;;;;;;;;;5037074;28;20208;-62
2023/04/16 13:06:12;;;;;;;9.30;8.32;;;;;;;;;;5040071;28;20215;-64
2023/04/16 13:08:40;;;;;;;5.75;5.25;;;;;;;;;;5038404;28;20211;-62
2023/04/16 13:11:07;;;;;;;5.60;5.10;;;;;;;;;;5036027;28;20204;-62
2023/04/16 13:13:35;;;;;;;5.28;4.78;;;;;;;;;;5044925;28;20222;-63
2023/04/16 13:16:05;;;;;;;5.75;5.15;;;;;;;;;;5041118;28;20290;-62
2023/04/16 13:18:32;;;;;;;5.32;4.93;;;;;;;;;;5038745;28;20215;-62
2023/04/16 13:21:00;;;;;;;5.03;4.63;;;;;;;;;;5040532;28;20219;-63
2023/04/16 13:23:27;;;;;;;4.90;4.40;;;;;;;;;;5042050;28;20226;-62
2023/04/16 13:25:54;;;;;;;6.47;5.25;;;;;;;;;;5044460;28;20215;-62
2023/04/16 13:28:21;;;;;;;4.80;4.40;;;;;;;;;;5041396;28;20277;-63
2023/04/16 13:30:49;;;;;;;5.70;5.20;;;;;;;;;;5040817;28;20224;-62
2023/04/16 13:33:17;;;;;;;5.45;4.95;;;;;;;;;;5037670;28;20212;-62
2023/04/16 13:35:44;;;;;;;5.18;4.78;;;;;;;;;;5036449;28;20208;-62
2023/04/16 13:38:11;;;;;;;5.80;5.30;;;;;;;;;;5040263;28;20294;-62
2023/04/16 13:40:38;;;;;;;6.43;5.82;;;;;;;;;;5037593;28;20218;-62
2023/04/16 13:43:05;;;;;;;5.40;4.90;;;;;;;;;;5036711;28;20207;-64
2023/04/16 13:45:32;;;;;;;5.18;4.78;;;;;;;;;;5039244;28;20243;-64
2023/04/16 13:48:01;;;;;;;6.30;5.70;;;;;;;;;;5037707;28;20207;-63
2023/04/16 13:50:28;;;;;;;6.00;5.43;;;;;;;;;;5038472;28;20227;-62
2023/04/16 13:52:55;;;;;;;6.20;5.45;;;;;;;;;;5039894;28;20203;-62
2023/04/16 13:55:22;;;;;;;6.18;5.68;;;;;;;;;;5039584;28;20215;-63
2023/04/16 13:57:52;;;;;;;6.60;6.00;;;;;;;;;;5039284;28;20207;-62
2023/04/16 14:00:19;;;;;;;6.75;6.15;;;;;;;;;;5042660;28;20196;-62
2023/04/16 14:02:47;;;;;;;6.70;6.10;;;;;;;;;;5040110;28;20207;-62
2023/04/16 14:05:15;;;;;;;7.75;6.88;;;;;;;;;;5043491;28;20206;-70
2023/04/16 14:07:42;;;;;;;7.93;7.13;;;;;;;;;;5040034;28;20207;-71
2023/04/16 14:10:10;;;;;;;8.57;7.75;;;;;;;;;;5042351;28;20224;-71
2023/04/16 14:12:38;;;;;;;7.05;6.38;;;;;;;;;;5042127;28;20203;-71
2023/04/16 14:15:08;;;;;;;8.20;7.47;;;;;;;;;;5039094;28;20206;-71
2023/04/16 14:17:35;;;;;;;10.30;9.30;;;;;;;;;;5042416;28;20204;-71
2023/04/16 14:20:03;;;;;;;10.57;9.57;;;;;;;;;;5040512;28;20282;-71
2023/04/16 14:22:32;;;;;;;8.65;7.85;;;;;;;;;;5042178;28;20211;-71
2023/04/16 14:24:59;;;;;;;9.57;8.68;;;;;;;;;;5041956;28;20208;-72
2023/04/16 14:27:27;;;;;;;9.50;8.50;;;;;;;;;;5039209;28;20204;-70
2023/04/16 14:29:54;;;;;;;10.55;8.05;;;;;;;;;;5044099;28;20259;-71
2023/04/16 14:32:21;;;;;;;24.27;21.73;;;;;;;;;;5041535;28;20200;-71
2023/04/16 14:34:48;;;;;;;10.80;9.70;;;;;;;;;;5047030;28;20199;-71
2023/04/16 14:37:16;;;;;;;8.93;8.00;;;;;;;;;;5043972;28;20204;-70
2023/04/16 14:39:45;;;;;;;9.77;8.77;;;;;;;;;;5044125;28;20200;-70
2023/04/16 14:42:12;;;;;;;9.63;8.73;;;;;;;;;;5043127;28;20234;-70
2023/04/16 14:44:39;;;;;;;10.40;9.27;;;;;;;;;;5043084;28;20262;-71
2023/04/16 14:47:07;;;;;;;9.10;8.20;;;;;;;;;;5040714;28;20271;-71